createdAt,value
2018-07-21T00:00:11.340Z,94.87
2018-07-21T00:01:11.337Z,94.78
2018-07-21T00:02:11.337Z,94.68
2018-07-21T00:03:11.334Z,94.87
2018-07-21T00:04:11.339Z,93.33
2018-07-21T00:05:11.334Z,94.29
2018-07-21T00:06:11.332Z,94.01
2018-07-21T00:07:11.333Z,94.39
2018-07-21T00:08:11.328Z,94.39
2018-07-21T00:09:11.329Z,94.01
2018-07-21T00:10:11.331Z,94.59
2018-07-21T00:11:11.322Z,94.49
2018-07-21T00:12:11.319Z,94.20
2018-07-21T00:13:11.315Z,93.24
2018-07-21T00:14:11.369Z,93.24
2018-07-21T00:15:11.315Z,94.29
2018-07-21T00:16:11.311Z,94.01
2018-07-21T00:17:11.309Z,94.01
2018-07-21T00:18:11.314Z,94.29
2018-07-21T00:19:11.309Z,94.29
2018-07-21T00:20:11.304Z,94.87
2018-07-21T00:21:11.301Z,94.20
2018-07-21T00:22:11.302Z,93.91
2018-07-21T00:23:11.306Z,94.29
2018-07-21T00:24:11.301Z,94.59
2018-07-21T00:25:11.301Z,93.91
2018-07-21T00:26:11.293Z,93.91
2018-07-21T00:27:11.297Z,94.29
2018-07-21T00:28:11.291Z,94.49
2018-07-21T00:29:11.287Z,93.33
2018-07-21T00:30:11.288Z,93.33
2018-07-21T00:31:11.283Z,93.04
2018-07-21T00:32:11.280Z,93.62
2018-07-21T00:33:11.278Z,93.72
2018-07-21T00:34:11.281Z,93.33
2018-07-21T00:35:11.281Z,92.85
2018-07-21T00:36:11.276Z,93.14
2018-07-21T00:37:11.275Z,92.94
2018-07-21T00:38:11.272Z,93.33
2018-07-21T00:39:11.272Z,92.47
2018-07-21T00:40:11.267Z,93.24
2018-07-21T00:41:11.267Z,93.14
2018-07-21T00:42:11.267Z,93.81
2018-07-21T00:43:11.271Z,93.33
2018-07-21T00:44:11.325Z,93.81
2018-07-21T00:45:11.257Z,93.72
2018-07-21T00:46:11.372Z,93.62
2018-07-21T00:47:11.254Z,93.72
2018-07-21T00:48:11.334Z,93.52
2018-07-21T00:49:11.252Z,92.66
2018-07-21T00:50:11.251Z,93.14
2018-07-21T00:51:11.243Z,93.24
2018-07-21T00:52:11.240Z,92.66
2018-07-21T00:53:11.243Z,93.33
2018-07-21T00:54:11.239Z,94.29
2018-07-21T00:55:11.239Z,93.91
2018-07-21T00:56:11.233Z,92.94
2018-07-21T00:57:11.267Z,92.76
2018-07-21T00:58:11.234Z,92.47
2018-07-21T00:59:11.227Z,92.76
2018-07-21T01:00:11.224Z,93.33
2018-07-21T01:01:11.222Z,93.57
2018-07-21T01:02:11.227Z,93.04
2018-07-21T01:03:11.219Z,93.19
2018-07-21T01:04:11.215Z,93.67
2018-07-21T01:05:11.215Z,93.91
2018-07-21T01:06:11.219Z,94.06
2018-07-21T01:07:11.219Z,94.25
2018-07-21T01:08:11.212Z,94.15
2018-07-21T01:09:11.207Z,93.96
2018-07-21T01:10:11.207Z,94.44
2018-07-21T01:11:11.219Z,94.25
2018-07-21T01:12:11.205Z,94.06
2018-07-21T01:13:11.198Z,94.44
2018-07-21T01:14:11.195Z,94.44
2018-07-21T01:15:11.195Z,93.77
2018-07-21T01:16:11.191Z,94.25
2018-07-21T01:17:11.190Z,93.48
2018-07-21T01:18:11.187Z,93.96
2018-07-21T01:19:11.186Z,93.77
2018-07-21T01:20:11.188Z,94.25
2018-07-21T01:21:11.179Z,94.25
2018-07-21T01:22:11.180Z,93.77
2018-07-21T01:23:11.175Z,93.87
2018-07-21T01:24:11.178Z,93.57
2018-07-21T01:25:11.179Z,93.38
2018-07-21T01:26:11.170Z,93.57
2018-07-21T01:27:11.172Z,93.29
2018-07-21T01:28:11.172Z,94.06
2018-07-21T01:29:11.165Z,93.19
2018-07-21T01:30:11.162Z,92.52
2018-07-21T01:31:11.162Z,92.32
2018-07-21T01:32:11.160Z,92.71
2018-07-21T01:33:11.156Z,93.29
2018-07-21T01:34:11.156Z,93.96
2018-07-21T01:35:11.153Z,93.87
2018-07-21T01:36:11.148Z,93.29
2018-07-21T01:37:11.146Z,92.56
2018-07-21T01:38:11.143Z,92.94
2018-07-21T01:39:11.148Z,93.29
2018-07-21T01:40:11.140Z,92.52
2018-07-21T01:41:11.140Z,92.42
2018-07-21T01:42:11.136Z,92.13
2018-07-21T01:43:11.138Z,92.22
2018-07-21T01:44:11.132Z,93.00
2018-07-21T01:45:11.130Z,93.29
2018-07-21T01:46:11.128Z,93.67
2018-07-21T01:47:11.126Z,93.38
2018-07-21T01:48:11.128Z,92.71
2018-07-21T01:49:11.122Z,93.29
2018-07-21T01:50:11.125Z,92.71
2018-07-21T01:51:11.117Z,92.61
2018-07-21T01:52:11.119Z,93.29
2018-07-21T01:53:11.112Z,93.29
2018-07-21T01:54:11.112Z,93.57
2018-07-21T01:55:11.108Z,92.71
2018-07-21T01:56:11.106Z,92.71
2018-07-21T01:57:11.111Z,93.29
2018-07-21T01:58:11.103Z,93.29
2018-07-21T01:59:11.101Z,93.19
2018-07-21T02:00:11.097Z,92.61
2018-07-21T02:01:11.096Z,93.09
2018-07-21T02:02:11.095Z,92.42
2018-07-21T02:03:11.099Z,92.03
2018-07-21T02:04:11.089Z,92.13
2018-07-21T02:05:11.089Z,92.42
2018-07-21T02:06:11.088Z,92.32
2018-07-21T02:07:11.088Z,93.00
2018-07-21T02:08:11.082Z,93.19
2018-07-21T02:09:11.083Z,93.19
2018-07-21T02:10:11.078Z,92.61
2018-07-21T02:11:11.077Z,92.71
2018-07-21T02:12:11.080Z,92.52
2018-07-21T02:13:11.072Z,92.52
2018-07-21T02:14:11.067Z,92.61
2018-07-21T02:15:11.068Z,92.90
2018-07-21T02:16:11.063Z,93.57
2018-07-21T02:17:11.065Z,93.38
2018-07-21T02:18:11.061Z,93.82
2018-07-21T02:19:11.058Z,93.91
2018-07-21T02:20:11.054Z,94.01
2018-07-21T02:21:11.052Z,93.67
2018-07-21T02:22:11.052Z,93.19
2018-07-21T02:23:11.047Z,92.71
2018-07-21T02:24:11.046Z,92.71
2018-07-21T02:25:11.042Z,92.61
2018-07-21T02:26:11.041Z,92.52
2018-07-21T02:27:11.038Z,92.13
2018-07-21T02:28:11.039Z,92.22
2018-07-21T02:29:11.032Z,91.17
2018-07-21T02:30:11.033Z,91.27
2018-07-21T02:31:11.031Z,90.25
2018-07-21T02:32:11.099Z,90.88
2018-07-21T02:33:11.025Z,91.65
2018-07-21T02:34:11.021Z,91.55
2018-07-21T02:35:11.020Z,91.55
2018-07-21T02:36:11.016Z,91.36
2018-07-21T02:37:11.019Z,92.13
2018-07-21T02:38:11.012Z,90.97
2018-07-21T02:39:11.010Z,91.75
2018-07-21T02:40:11.013Z,91.94
2018-07-21T02:41:11.008Z,92.32
2018-07-21T02:42:11.006Z,91.75
2018-07-21T02:43:11.004Z,91.94
2018-07-21T02:44:10.997Z,92.52
2018-07-21T02:45:10.994Z,92.61
2018-07-21T02:46:10.997Z,92.52
2018-07-21T02:47:10.995Z,91.55
2018-07-21T02:48:10.989Z,92.13
2018-07-21T02:49:10.991Z,92.13
2018-07-21T02:50:10.990Z,92.03
2018-07-21T02:51:10.982Z,91.94
2018-07-21T02:52:10.980Z,92.42
2018-07-21T02:53:10.977Z,90.97
2018-07-21T02:54:10.977Z,90.88
2018-07-21T02:55:10.980Z,90.88
2018-07-21T02:56:10.971Z,90.78
2018-07-21T02:57:10.971Z,90.69
2018-07-21T02:58:10.967Z,90.69
2018-07-21T02:59:10.970Z,91.07
2018-07-21T03:00:10.962Z,90.78
2018-07-21T03:01:10.964Z,90.69
2018-07-21T03:02:10.965Z,90.20
2018-07-21T03:03:10.955Z,90.11
2018-07-21T03:04:10.954Z,90.50
2018-07-21T03:05:10.954Z,90.11
2018-07-21T03:06:10.948Z,90.20
2018-07-21T03:07:10.946Z,90.20
2018-07-21T03:08:10.950Z,90.11
2018-07-21T03:09:10.941Z,91.17
2018-07-21T03:10:10.942Z,90.69
2018-07-21T03:11:10.938Z,90.50
2018-07-21T03:12:10.933Z,89.92
2018-07-21T03:13:10.934Z,90.20
2018-07-21T03:14:10.935Z,89.82
2018-07-21T03:15:10.927Z,89.92
2018-07-21T03:16:10.928Z,90.20
2018-07-21T03:17:10.921Z,90.11
2018-07-21T03:18:10.922Z,91.07
2018-07-21T03:19:10.917Z,90.59
2018-07-21T03:20:10.915Z,90.97
2018-07-21T03:21:10.914Z,90.88
2018-07-21T03:22:10.910Z,90.88
2018-07-21T03:23:10.948Z,91.07
2018-07-21T03:24:10.905Z,90.59
2018-07-21T03:25:10.903Z,91.31
2018-07-21T03:26:10.900Z,91.70
2018-07-21T03:27:10.904Z,91.22
2018-07-21T03:28:10.902Z,91.70
2018-07-21T03:29:10.892Z,91.46
2018-07-21T03:30:10.894Z,91.99
2018-07-21T03:31:10.895Z,91.51
2018-07-21T03:32:10.903Z,91.41
2018-07-21T03:33:10.883Z,91.60
2018-07-21T03:34:10.886Z,91.80
2018-07-21T03:35:10.882Z,92.28
2018-07-21T03:36:10.879Z,92.28
2018-07-21T03:37:10.875Z,92.66
2018-07-21T03:38:10.877Z,92.47
2018-07-21T03:39:10.873Z,92.47
2018-07-21T03:40:10.866Z,92.28
2018-07-21T03:41:10.873Z,92.76
2018-07-21T03:42:10.869Z,92.85
2018-07-21T03:43:10.859Z,93.33
2018-07-21T03:44:10.858Z,92.85
2018-07-21T03:45:10.857Z,92.47
2018-07-21T03:46:10.855Z,92.38
2018-07-21T03:47:10.850Z,92.52
2018-07-21T03:48:10.846Z,91.94
2018-07-21T03:49:10.847Z,92.22
2018-07-21T03:50:10.848Z,91.27
2018-07-21T03:51:10.845Z,90.59
2018-07-21T03:52:10.841Z,91.55
2018-07-21T03:53:10.835Z,90.97
2018-07-21T03:54:10.836Z,91.27
2018-07-21T03:55:10.875Z,91.27
2018-07-21T03:56:10.831Z,92.22
2018-07-21T03:57:10.831Z,91.84
2018-07-21T03:58:10.825Z,92.28
2018-07-21T03:59:10.822Z,92.47
2018-07-21T04:00:10.818Z,92.80
2018-07-21T04:01:10.822Z,92.42
2018-07-21T04:02:10.819Z,92.28
2018-07-21T04:03:10.820Z,93.33
2018-07-21T04:04:10.812Z,93.15
2018-07-21T04:05:10.811Z,93.05
2018-07-21T04:06:10.807Z,94.01
2018-07-21T04:07:10.803Z,93.15
2018-07-21T04:08:10.802Z,93.91
2018-07-21T04:09:10.797Z,93.72
2018-07-21T04:10:10.794Z,94.01
2018-07-21T04:11:10.792Z,93.62
2018-07-21T04:12:10.790Z,94.01
2018-07-21T04:13:10.788Z,93.15
2018-07-21T04:14:10.793Z,93.24
2018-07-21T04:15:10.784Z,93.38
2018-07-21T04:16:10.780Z,93.15
2018-07-21T04:17:10.780Z,93.48
2018-07-21T04:18:10.778Z,94.10
2018-07-21T04:19:10.786Z,93.91
2018-07-21T04:20:10.770Z,93.91
2018-07-21T04:21:10.771Z,93.91
2018-07-21T04:22:10.767Z,93.91
2018-07-21T04:23:10.769Z,94.20
2018-07-21T04:24:10.776Z,93.72
2018-07-21T04:25:10.764Z,93.53
2018-07-21T04:26:10.759Z,94.20
2018-07-21T04:27:10.756Z,94.10
2018-07-21T04:28:10.759Z,94.68
2018-07-21T04:29:10.749Z,94.78
2018-07-21T04:30:10.753Z,94.97
2018-07-21T04:31:10.744Z,94.59
2018-07-21T04:32:10.743Z,95.26
2018-07-21T04:33:10.742Z,95.07
2018-07-21T04:34:10.741Z,95.45
2018-07-21T04:35:10.734Z,95.07
2018-07-21T04:36:10.734Z,95.26
2018-07-21T04:37:10.731Z,94.97
2018-07-21T04:38:10.732Z,94.59
2018-07-21T04:39:10.733Z,94.78
2018-07-21T04:40:10.731Z,94.59
2018-07-21T04:41:10.722Z,94.92
2018-07-21T04:42:10.720Z,94.40
2018-07-21T04:43:10.718Z,94.59
2018-07-21T04:44:10.713Z,94.73
2018-07-21T04:45:10.711Z,94.20
2018-07-21T04:46:10.713Z,94.25
2018-07-21T04:47:10.708Z,93.96
2018-07-21T04:48:10.705Z,93.96
2018-07-21T04:49:10.701Z,93.77
2018-07-21T04:50:10.698Z,92.52
2018-07-21T04:51:10.696Z,92.03
2018-07-21T04:52:10.694Z,92.13
2018-07-21T04:53:10.690Z,92.03
2018-07-21T04:54:10.690Z,91.84
2018-07-21T04:55:10.690Z,92.42
2018-07-21T04:56:10.685Z,92.32
2018-07-21T04:57:10.684Z,93.09
2018-07-21T04:58:10.683Z,92.61
2018-07-21T04:59:10.683Z,93.29
2018-07-21T05:00:10.680Z,93.96
2018-07-21T05:01:10.672Z,93.96
2018-07-21T05:02:10.670Z,93.96
2018-07-21T05:03:10.671Z,93.77
2018-07-21T05:04:10.665Z,94.73
2018-07-21T05:05:10.668Z,94.34
2018-07-21T05:06:10.661Z,94.78
2018-07-21T05:07:10.669Z,95.17
2018-07-21T05:08:10.660Z,94.40
2018-07-21T05:09:10.659Z,94.87
2018-07-21T05:10:10.661Z,93.96
2018-07-21T05:11:10.652Z,93.77
2018-07-21T05:12:10.646Z,94.44
2018-07-21T05:13:10.650Z,94.06
2018-07-21T05:14:10.646Z,94.25
2018-07-21T05:15:10.640Z,94.15
2018-07-21T05:16:10.637Z,94.25
2018-07-21T05:17:10.635Z,94.34
2018-07-21T05:18:10.636Z,94.44
2018-07-21T05:19:10.630Z,94.44
2018-07-21T05:20:10.678Z,93.96
2018-07-21T05:21:10.626Z,93.57
2018-07-21T05:22:10.628Z,94.06
2018-07-21T05:23:10.626Z,93.57
2018-07-21T05:24:10.618Z,93.96
2018-07-21T05:25:10.621Z,94.15
2018-07-21T05:26:10.621Z,94.73
2018-07-21T05:27:10.616Z,94.34
2018-07-21T05:28:10.611Z,93.87
2018-07-21T05:29:10.608Z,93.29
2018-07-21T05:30:10.606Z,93.87
2018-07-21T05:31:10.608Z,93.67
2018-07-21T05:32:10.600Z,93.96
2018-07-21T05:33:10.599Z,94.44
2018-07-21T05:34:10.594Z,94.44
2018-07-21T05:35:10.601Z,94.15
2018-07-21T05:36:10.592Z,93.48
2018-07-21T05:37:10.589Z,93.96
2018-07-21T05:38:10.586Z,93.67
2018-07-21T05:39:10.603Z,93.96
2018-07-21T05:40:10.581Z,93.77
2018-07-21T05:41:10.584Z,93.87
2018-07-21T05:42:10.582Z,93.87
2018-07-21T05:43:10.581Z,93.57
2018-07-21T05:44:10.571Z,93.96
2018-07-21T05:45:10.629Z,93.96
2018-07-21T05:46:10.569Z,93.96
2018-07-21T05:47:10.566Z,93.67
2018-07-21T05:48:10.563Z,93.48
2018-07-21T05:49:10.560Z,93.00
2018-07-21T05:50:10.556Z,93.38
2018-07-21T05:51:10.557Z,93.48
2018-07-21T05:52:10.560Z,93.09
2018-07-21T05:53:10.579Z,93.19
2018-07-21T05:54:10.547Z,93.29
2018-07-21T05:55:10.546Z,93.38
2018-07-21T05:56:10.548Z,93.19
2018-07-21T05:57:10.541Z,93.57
2018-07-21T05:58:10.545Z,93.29
2018-07-21T05:59:10.537Z,93.33
2018-07-21T06:00:10.543Z,91.99
2018-07-21T06:01:10.540Z,91.99
2018-07-21T06:02:10.529Z,91.89
2018-07-21T06:03:10.655Z,91.31
2018-07-21T06:04:10.528Z,90.10
2018-07-21T06:05:10.524Z,89.91
2018-07-21T06:06:10.524Z,88.95
2018-07-21T06:07:10.530Z,87.98
2018-07-21T06:08:10.518Z,87.45
2018-07-21T06:09:10.515Z,87.64
2018-07-21T06:10:10.518Z,86.87
2018-07-21T06:11:10.560Z,86.00
2018-07-21T06:12:10.509Z,85.52
2018-07-21T06:13:10.512Z,85.42
2018-07-21T06:14:10.513Z,84.94
2018-07-21T06:15:10.507Z,84.84
2018-07-21T06:16:10.503Z,85.03
2018-07-21T06:17:10.501Z,85.23
2018-07-21T06:18:10.502Z,85.61
2018-07-21T06:19:10.497Z,85.52
2018-07-21T06:20:10.495Z,85.03
2018-07-21T06:21:10.494Z,84.94
2018-07-21T06:22:10.493Z,84.36
2018-07-21T06:23:10.491Z,84.17
2018-07-21T06:24:10.490Z,84.01
2018-07-21T06:25:10.496Z,83.53
2018-07-21T06:26:10.492Z,82.48
2018-07-21T06:27:10.487Z,81.35
2018-07-21T06:28:10.513Z,80.68
2018-07-21T06:29:10.482Z,80.00
2018-07-21T06:30:10.494Z,79.62
2018-07-21T06:31:10.479Z,77.83
2018-07-21T06:32:10.476Z,76.47
2018-07-21T06:33:10.477Z,76.51
2018-07-21T06:34:10.474Z,75.84
2018-07-21T06:35:10.473Z,75.74
2018-07-21T06:36:10.474Z,74.90
2018-07-21T06:37:10.475Z,74.42
2018-07-21T06:38:10.471Z,73.46
2018-07-21T06:39:10.470Z,73.84
2018-07-21T06:40:10.471Z,73.65
2018-07-21T06:41:10.478Z,74.32
2018-07-21T06:42:10.470Z,73.80
2018-07-21T06:43:10.534Z,74.68
2018-07-21T06:44:10.471Z,74.68
2018-07-21T06:45:10.466Z,74.77
2018-07-21T06:46:10.471Z,74.58
2018-07-21T06:47:10.465Z,74.87
2018-07-21T06:48:10.464Z,75.64
2018-07-21T06:49:10.463Z,75.35
2018-07-21T06:50:10.467Z,75.22
2018-07-21T06:51:10.465Z,75.60
2018-07-21T06:52:10.466Z,76.18
2018-07-21T06:53:10.459Z,76.18
2018-07-21T06:54:10.463Z,75.89
2018-07-21T06:55:10.465Z,76.86
2018-07-21T06:56:10.457Z,76.76
2018-07-21T06:57:10.459Z,77.69
2018-07-21T06:58:10.462Z,77.69
2018-07-21T06:59:10.476Z,77.01
2018-07-21T07:00:10.456Z,76.92
2018-07-21T07:01:10.460Z,76.24
2018-07-21T07:02:10.454Z,76.63
2018-07-21T07:03:10.452Z,76.63
2018-07-21T07:04:10.454Z,77.11
2018-07-21T07:05:10.451Z,77.21
2018-07-21T07:06:10.449Z,77.30
2018-07-21T07:07:10.449Z,77.01
2018-07-21T07:08:10.449Z,77.69
2018-07-21T07:09:10.453Z,77.59
2018-07-21T07:10:10.452Z,77.01
2018-07-21T07:11:10.450Z,77.30
2018-07-21T07:12:10.444Z,76.53
2018-07-21T07:13:10.442Z,76.53
2018-07-21T07:14:10.447Z,76.63
2018-07-21T07:15:10.441Z,76.43
2018-07-21T07:16:10.441Z,76.63
2018-07-21T07:17:10.439Z,75.76
2018-07-21T07:18:10.437Z,75.37
2018-07-21T07:19:10.437Z,75.27
2018-07-21T07:20:10.435Z,74.89
2018-07-21T07:21:10.433Z,74.60
2018-07-21T07:22:10.439Z,74.64
2018-07-21T07:23:10.440Z,73.86
2018-07-21T07:24:10.429Z,74.16
2018-07-21T07:25:10.429Z,73.96
2018-07-21T07:26:10.430Z,74.54
2018-07-21T07:27:10.431Z,74.83
2018-07-21T07:28:10.427Z,75.22
2018-07-21T07:29:10.428Z,74.64
2018-07-21T07:30:10.428Z,74.64
2018-07-21T07:31:10.429Z,74.73
2018-07-21T07:32:10.423Z,74.93
2018-07-21T07:33:10.423Z,75.18
2018-07-21T07:34:10.427Z,75.37
2018-07-21T07:35:10.442Z,75.95
2018-07-21T07:36:10.435Z,75.85
2018-07-21T07:37:10.419Z,76.05
2018-07-21T07:38:10.420Z,76.34
2018-07-21T07:39:10.418Z,76.82
2018-07-21T07:40:10.420Z,77.21
2018-07-21T07:41:10.416Z,77.98
2018-07-21T07:42:10.421Z,78.66
2018-07-21T07:43:10.415Z,78.94
2018-07-21T07:44:10.412Z,79.14
2018-07-21T07:45:10.416Z,79.33
2018-07-21T07:46:10.417Z,79.72
2018-07-21T07:47:10.414Z,80.06
2018-07-21T07:48:10.410Z,80.35
2018-07-21T07:49:10.415Z,80.64
2018-07-21T07:50:10.410Z,80.35
2018-07-21T07:51:10.409Z,80.74
2018-07-21T07:52:10.412Z,81.22
2018-07-21T07:53:10.406Z,81.51
2018-07-21T07:54:10.404Z,80.83
2018-07-21T07:55:10.409Z,81.80
2018-07-21T07:56:10.404Z,81.95
2018-07-21T07:57:10.402Z,82.18
2018-07-21T07:58:10.402Z,82.18
2018-07-21T07:59:10.409Z,81.47
2018-07-21T08:00:10.405Z,80.83
2018-07-21T08:01:10.447Z,80.45
2018-07-21T08:02:10.401Z,80.79
2018-07-21T08:03:10.397Z,80.99
2018-07-21T08:04:10.394Z,81.09
2018-07-21T08:05:10.400Z,80.54
2018-07-21T08:06:10.400Z,80.83
2018-07-21T08:07:10.394Z,80.64
2018-07-21T08:08:10.391Z,80.83
2018-07-21T08:09:10.391Z,80.16
2018-07-21T08:10:10.389Z,80.93
2018-07-21T08:11:10.386Z,81.02
2018-07-21T08:12:10.385Z,80.93
2018-07-21T08:13:10.388Z,80.83
2018-07-21T08:14:10.398Z,80.35
2018-07-21T08:15:10.382Z,81.02
2018-07-21T08:16:10.382Z,80.64
2018-07-21T08:17:10.385Z,80.93
2018-07-21T08:18:10.392Z,80.64
2018-07-21T08:19:10.379Z,80.35
2018-07-21T08:20:10.374Z,80.06
2018-07-21T08:21:10.375Z,78.71
2018-07-21T08:22:10.382Z,78.81
2018-07-21T08:23:10.372Z,78.71
2018-07-21T08:24:10.370Z,78.42
2018-07-21T08:25:10.371Z,78.71
2018-07-21T08:26:10.368Z,78.91
2018-07-21T08:27:10.367Z,78.17
2018-07-21T08:28:10.369Z,78.13
2018-07-21T08:29:10.442Z,77.78
2018-07-21T08:30:10.363Z,77.78
2018-07-21T08:31:10.367Z,77.01
2018-07-21T08:32:10.362Z,76.72
2018-07-21T08:33:10.361Z,77.21
2018-07-21T08:34:10.359Z,77.01
2018-07-21T08:35:10.364Z,76.72
2018-07-21T08:36:10.359Z,76.24
2018-07-21T08:37:10.359Z,75.99
2018-07-21T08:38:10.407Z,75.89
2018-07-21T08:39:10.360Z,75.22
2018-07-21T08:40:10.351Z,74.93
2018-07-21T08:41:10.453Z,74.54
2018-07-21T08:42:10.351Z,74.83
2018-07-21T08:43:10.353Z,74.83
2018-07-21T08:44:10.350Z,74.38
2018-07-21T08:45:10.356Z,74.10
2018-07-21T08:46:10.349Z,74.58
2018-07-21T08:47:10.348Z,73.90
2018-07-21T08:48:10.347Z,74.00
2018-07-21T08:49:10.349Z,73.42
2018-07-21T08:50:10.346Z,72.84
2018-07-21T08:51:10.346Z,72.84
2018-07-21T08:52:10.345Z,73.32
2018-07-21T08:53:10.344Z,72.74
2018-07-21T08:54:10.350Z,72.84
2018-07-21T08:55:10.342Z,72.97
2018-07-21T08:56:10.424Z,72.20
2018-07-21T08:57:10.341Z,72.39
2018-07-21T08:58:10.344Z,72.39
2018-07-21T08:59:10.346Z,72.39
2018-07-21T09:00:10.339Z,72.49
2018-07-21T09:01:10.341Z,72.88
2018-07-21T09:02:10.339Z,72.88
2018-07-21T09:03:10.339Z,72.58
2018-07-21T09:04:10.337Z,72.39
2018-07-21T09:05:10.344Z,72.68
2018-07-21T09:06:10.337Z,71.42
2018-07-21T09:07:10.337Z,71.66
2018-07-21T09:08:10.341Z,71.75
2018-07-21T09:09:10.337Z,71.84
2018-07-21T09:10:10.337Z,72.24
2018-07-21T09:11:10.340Z,71.84
2018-07-21T09:12:10.342Z,72.33
2018-07-21T09:13:10.431Z,71.56
2018-07-21T09:14:10.343Z,71.84
2018-07-21T09:15:10.335Z,71.66
2018-07-21T09:16:10.335Z,72.24
2018-07-21T09:17:10.341Z,71.75
2018-07-21T09:18:10.336Z,71.36
2018-07-21T09:19:10.338Z,71.46
2018-07-21T09:20:10.336Z,72.24
2018-07-21T09:21:10.341Z,71.94
2018-07-21T09:22:10.336Z,71.75
2018-07-21T09:23:10.333Z,71.36
2018-07-21T09:24:10.331Z,72.33
2018-07-21T09:25:10.339Z,72.33
2018-07-21T09:26:10.334Z,72.14
2018-07-21T09:27:10.340Z,72.24
2018-07-21T09:28:10.364Z,72.39
2018-07-21T09:29:10.339Z,72.62
2018-07-21T09:30:10.336Z,72.81
2018-07-21T09:31:10.336Z,73.07
2018-07-21T09:32:10.338Z,72.39
2018-07-21T09:33:10.334Z,72.58
2018-07-21T09:34:10.371Z,73.55
2018-07-21T09:35:10.340Z,74.32
2018-07-21T09:36:10.338Z,74.32
2018-07-21T09:37:10.332Z,74.23
2018-07-21T09:38:10.334Z,74.04
2018-07-21T09:39:10.333Z,74.23
2018-07-21T09:40:10.374Z,75.00
2018-07-21T09:41:10.334Z,75.00
2018-07-21T09:42:10.337Z,75.00
2018-07-21T09:43:10.340Z,75.00
2018-07-21T09:44:10.332Z,74.81
2018-07-21T09:45:10.338Z,74.62
2018-07-21T09:46:10.333Z,74.23
2018-07-21T09:47:10.338Z,75.10
2018-07-21T09:48:10.330Z,74.17
2018-07-21T09:49:10.344Z,75.10
2018-07-21T09:50:10.333Z,74.75
2018-07-21T09:51:10.332Z,74.85
2018-07-21T09:52:10.332Z,75.52
2018-07-21T09:53:10.336Z,75.13
2018-07-21T09:54:10.333Z,75.33
2018-07-21T09:55:10.332Z,75.52
2018-07-21T09:56:10.329Z,72.14
2018-07-21T09:57:10.332Z,73.49
2018-07-21T09:58:10.331Z,74.65
2018-07-21T09:59:10.333Z,73.78
2018-07-21T10:00:10.332Z,74.46
2018-07-21T10:01:10.331Z,74.75
2018-07-21T10:02:10.332Z,74.21
2018-07-21T10:03:10.336Z,75.75
2018-07-21T10:04:10.333Z,75.27
2018-07-21T10:05:10.332Z,75.07
2018-07-21T10:06:10.331Z,74.98
2018-07-21T10:07:10.335Z,74.98
2018-07-21T10:08:10.335Z,74.79
2018-07-21T10:09:10.329Z,74.98
2018-07-21T10:10:10.330Z,73.91
2018-07-21T10:11:10.338Z,74.30
2018-07-21T10:12:10.334Z,75.07
2018-07-21T10:13:10.333Z,74.17
2018-07-21T10:14:10.336Z,73.78
2018-07-21T10:15:10.332Z,73.33
2018-07-21T10:16:10.336Z,72.75
2018-07-21T10:17:10.334Z,72.27
2018-07-21T10:18:10.336Z,72.27
2018-07-21T10:19:10.332Z,72.08
2018-07-21T10:20:10.332Z,71.69
2018-07-21T10:21:10.333Z,71.50
2018-07-21T10:22:10.396Z,71.11
2018-07-21T10:23:10.335Z,71.69
2018-07-21T10:24:10.338Z,71.30
2018-07-21T10:25:10.337Z,71.59
2018-07-21T10:26:10.340Z,71.69
2018-07-21T10:27:10.336Z,71.69
2018-07-21T10:28:10.350Z,71.50
2018-07-21T10:29:10.339Z,71.50
2018-07-21T10:30:10.385Z,71.40
2018-07-21T10:31:10.341Z,71.62
2018-07-21T10:32:10.335Z,71.11
2018-07-21T10:33:10.351Z,71.34
2018-07-21T10:34:10.342Z,71.34
2018-07-21T10:35:10.338Z,71.11
2018-07-21T10:36:10.337Z,70.76
2018-07-21T10:37:10.339Z,71.14
2018-07-21T10:38:10.412Z,71.14
2018-07-21T10:39:10.347Z,71.04
2018-07-21T10:40:10.341Z,70.66
2018-07-21T10:41:10.343Z,70.95
2018-07-21T10:42:10.344Z,71.14
2018-07-21T10:43:10.349Z,71.24
2018-07-21T10:44:10.341Z,71.04
2018-07-21T10:45:10.348Z,71.34
2018-07-21T10:46:10.343Z,70.76
2018-07-21T10:47:10.347Z,70.27
2018-07-21T10:48:10.346Z,70.37
2018-07-21T10:49:10.353Z,71.14
2018-07-21T10:50:10.346Z,70.86
2018-07-21T10:51:10.347Z,70.76
2018-07-21T10:52:10.347Z,70.47
2018-07-21T10:53:10.348Z,70.56
2018-07-21T10:54:10.349Z,70.95
2018-07-21T10:55:10.351Z,70.86
2018-07-21T10:56:10.351Z,71.14
2018-07-21T10:57:10.351Z,70.76
2018-07-21T10:58:10.357Z,70.86
2018-07-21T10:59:10.355Z,71.04
2018-07-21T11:00:10.358Z,70.95
2018-07-21T11:01:10.353Z,71.24
2018-07-21T11:02:10.357Z,71.24
2018-07-21T11:03:10.354Z,71.14
2018-07-21T11:04:10.357Z,71.24
2018-07-21T11:05:10.362Z,70.66
2018-07-21T11:06:10.355Z,70.66
2018-07-21T11:07:10.357Z,71.01
2018-07-21T11:08:10.378Z,70.43
2018-07-21T11:09:10.358Z,71.30
2018-07-21T11:10:10.357Z,71.30
2018-07-21T11:11:10.360Z,71.01
2018-07-21T11:12:10.362Z,71.20
2018-07-21T11:13:10.357Z,71.11
2018-07-21T11:14:10.358Z,71.40
2018-07-21T11:15:10.369Z,71.11
2018-07-21T11:16:10.369Z,71.11
2018-07-21T11:17:10.359Z,71.40
2018-07-21T11:18:10.359Z,70.82
2018-07-21T11:19:10.360Z,70.34
2018-07-21T11:20:10.366Z,70.34
2018-07-21T11:21:10.360Z,69.46
2018-07-21T11:22:10.369Z,70.34
2018-07-21T11:23:10.365Z,70.53
2018-07-21T11:24:10.363Z,70.34
2018-07-21T11:25:10.364Z,70.34
2018-07-21T11:26:10.365Z,70.92
2018-07-21T11:27:10.367Z,71.01
2018-07-21T11:28:10.365Z,70.92
2018-07-21T11:29:10.371Z,70.82
2018-07-21T11:30:10.370Z,71.01
2018-07-21T11:31:10.366Z,70.82
2018-07-21T11:32:10.371Z,70.82
2018-07-21T11:33:10.368Z,71.30
2018-07-21T11:34:10.373Z,71.30
2018-07-21T11:35:10.443Z,71.30
2018-07-21T11:36:10.559Z,71.20
2018-07-21T11:37:10.366Z,70.92
2018-07-21T11:38:10.369Z,71.62
2018-07-21T11:39:10.373Z,71.53
2018-07-21T11:40:10.370Z,71.34
2018-07-21T11:41:10.371Z,70.86
2018-07-21T11:42:10.370Z,71.24
2018-07-21T11:43:10.371Z,70.86
2018-07-21T11:44:10.378Z,70.66
2018-07-21T11:45:10.373Z,70.95
2018-07-21T11:46:10.371Z,70.50
2018-07-21T11:47:10.376Z,70.40
2018-07-21T11:48:10.379Z,70.01
2018-07-21T11:49:10.373Z,70.01
2018-07-21T11:50:10.375Z,68.91
2018-07-21T11:51:10.377Z,69.53
2018-07-21T11:52:10.376Z,69.63
2018-07-21T11:53:10.376Z,68.76
2018-07-21T11:54:10.377Z,68.47
2018-07-21T11:55:10.378Z,68.27
2018-07-21T11:56:10.376Z,67.98
2018-07-21T11:57:10.381Z,68.18
2018-07-21T11:58:10.378Z,68.47
2018-07-21T11:59:10.444Z,67.98
2018-07-21T12:00:10.386Z,68.37
2018-07-21T12:01:10.380Z,68.18
2018-07-21T12:02:10.383Z,67.30
2018-07-21T12:03:10.387Z,67.14
2018-07-21T12:04:10.383Z,67.24
2018-07-21T12:05:10.389Z,66.95
2018-07-21T12:06:10.385Z,67.14
2018-07-21T12:07:10.397Z,66.27
2018-07-21T12:08:10.385Z,65.79
2018-07-21T12:09:10.387Z,66.17
2018-07-21T12:10:10.390Z,66.37
2018-07-21T12:11:10.394Z,66.27
2018-07-21T12:12:10.390Z,66.47
2018-07-21T12:13:10.494Z,66.75
2018-07-21T12:14:10.392Z,65.89
2018-07-21T12:15:10.399Z,65.69
2018-07-21T12:16:10.393Z,66.27
2018-07-21T12:17:10.402Z,66.66
2018-07-21T12:18:10.407Z,66.37
2018-07-21T12:19:10.399Z,66.56
2018-07-21T12:20:10.399Z,65.30
2018-07-21T12:21:10.403Z,65.43
2018-07-21T12:22:10.400Z,65.40
2018-07-21T12:23:10.400Z,65.30
2018-07-21T12:24:10.407Z,65.20
2018-07-21T12:25:10.400Z,65.24
2018-07-21T12:26:10.405Z,65.20
2018-07-21T12:27:10.405Z,65.63
2018-07-21T12:28:10.405Z,65.72
2018-07-21T12:29:10.411Z,65.98
2018-07-21T12:30:10.414Z,65.89
2018-07-21T12:31:10.413Z,65.98
2018-07-21T12:32:10.410Z,66.66
2018-07-21T12:33:10.413Z,66.37
2018-07-21T12:34:10.418Z,67.05
2018-07-21T12:35:10.413Z,67.53
2018-07-21T12:36:10.415Z,67.92
2018-07-21T12:37:10.414Z,67.63
2018-07-21T12:38:10.422Z,67.92
2018-07-21T12:39:10.421Z,67.88
2018-07-21T12:40:10.463Z,68.37
2018-07-21T12:41:10.417Z,68.47
2018-07-21T12:42:10.426Z,69.24
2018-07-21T12:43:10.420Z,70.01
2018-07-21T12:44:10.422Z,70.66
2018-07-21T12:45:10.427Z,70.08
2018-07-21T12:46:10.430Z,70.18
2018-07-21T12:47:10.432Z,70.43
2018-07-21T12:48:10.424Z,72.75
2018-07-21T12:49:10.426Z,74.49
2018-07-21T12:50:10.428Z,74.85
2018-07-21T12:51:10.433Z,76.45
2018-07-21T12:52:10.430Z,80.12